Terminal Aerodrome Forecast
Issued by NWS Omaha/Valley, NE

Home | Current Version | Previous Version | Text Only | Print | Product List | Glossary On
Versions: 1 2 3 4 5 6 7 8 9 10 11 12 13 14 15 16 17 18 19 20 21 22 23 24 25 26 27 28 29 30 31 32 33 34 35 36 37 38 39 40
000
FTUS43 KOAX 221720
TAFOFK
TAF
KOFK 221720Z 2218/2318 30012G20KT P6SM FEW070 SCT250
     FM222000 30010KT P6SM -SHRA SCT060 BKN090
      TEMPO 2221/2222 VRB15G25KT 4SM TS BKN060CB
     FM222200 32010KT P6SM VCSH SCT050 BKN100
     FM230600 31006KT P6SM SCT040 BKN140
     FM231100 32007KT P6SM FEW030 SCT110
     FM231500 33011G19KT P6SM SCT025 BKN040=

USA.gov is the U.S. government's official web portal to all federal, state and local government web resources and services.